createdAt,value
2019-04-11T00:01:17.548Z,4.09
2019-04-11T00:03:46.049Z,4.07
2019-04-11T00:06:15.107Z,4.02
2019-04-11T00:08:44.410Z,4.00
2019-04-11T00:11:13.518Z,4.00
2019-04-11T00:13:43.187Z,3.98
2019-04-11T00:16:13.097Z,3.99
2019-04-11T00:18:42.909Z,3.98
2019-04-11T00:21:12.763Z,3.98
2019-04-11T00:23:42.701Z,3.99
2019-04-11T00:26:11.808Z,4.01
2019-04-11T00:28:41.577Z,4.02
2019-04-11T00:31:10.478Z,4.04
2019-04-11T00:33:39.024Z,4.05
2019-04-11T00:36:08.336Z,4.05
2019-04-11T00:38:38.160Z,4.05
2019-04-11T00:41:07.875Z,4.06
2019-04-11T00:43:40.406Z,4.06
2019-04-11T00:46:07.896Z,4.06
2019-04-11T00:48:37.645Z,4.07
2019-04-11T00:51:07.700Z,4.07
2019-04-11T00:53:36.374Z,4.07
2019-04-11T00:56:06.128Z,4.06
2019-04-11T00:58:34.669Z,4.06
2019-04-11T01:01:03.790Z,4.05
2019-04-11T01:03:32.433Z,4.04
2019-04-11T01:06:01.596Z,4.07
2019-04-11T01:08:31.467Z,4.04
2019-04-11T01:11:00.018Z,4.02
2019-04-11T01:13:40.526Z,4.01
2019-04-11T01:16:01.251Z,3.98
2019-04-11T01:18:29.910Z,3.96
2019-04-11T01:20:58.467Z,3.95
2019-04-11T01:23:27.365Z,3.94
2019-04-11T01:25:56.998Z,3.94
2019-04-11T01:28:25.532Z,3.93
2019-04-11T01:31:05.681Z,3.90
2019-04-11T01:33:34.142Z,3.89
2019-04-11T01:36:02.801Z,3.86
2019-04-11T01:38:34.574Z,3.86
2019-04-11T01:41:02.576Z,3.85
2019-04-11T01:43:32.232Z,3.84
2019-04-11T01:46:02.191Z,3.82
2019-04-11T01:48:33.332Z,3.81
2019-04-11T01:51:02.277Z,3.80
2019-04-11T01:53:31.214Z,3.79
2019-04-11T01:56:00.923Z,3.79
2019-04-11T01:58:30.872Z,3.79
2019-04-11T02:01:01.227Z,3.79
2019-04-11T02:03:35.040Z,3.80
2019-04-11T02:06:03.593Z,3.82
2019-04-11T02:08:33.395Z,3.84
2019-04-11T02:11:02.015Z,3.87
2019-04-11T02:13:30.452Z,3.87
2019-04-11T02:16:00.361Z,3.88
2019-04-11T02:18:29.719Z,3.89
2019-04-11T02:20:58.234Z,3.88
2019-04-11T02:23:31.212Z,3.87
2019-04-11T02:26:01.324Z,3.89
2019-04-11T02:28:30.901Z,3.90
2019-04-11T02:31:00.174Z,3.88
2019-04-11T02:33:28.724Z,3.87
2019-04-11T02:35:57.299Z,3.85
2019-04-11T02:38:26.256Z,3.84
2019-04-11T02:40:57.322Z,3.83
2019-04-11T02:43:26.134Z,3.82
2019-04-11T02:46:08.923Z,3.82
2019-04-11T02:48:26.916Z,3.81
2019-04-11T02:50:56.542Z,3.80
2019-04-11T02:53:26.692Z,3.79
2019-04-11T02:55:58.264Z,3.77
2019-04-11T02:58:27.927Z,3.77
2019-04-11T03:01:00.355Z,3.79
2019-04-11T03:03:28.090Z,3.81
2019-04-11T03:05:59.838Z,3.83
2019-04-11T03:08:31.873Z,3.83
2019-04-11T03:10:59.538Z,3.82
2019-04-11T03:13:29.502Z,3.80
2019-04-11T03:16:12.676Z,3.80
2019-04-11T03:18:45.852Z,3.81
2019-04-11T03:21:04.613Z,3.81
2019-04-11T03:23:31.123Z,3.82
2019-04-11T03:26:00.677Z,3.83
2019-04-11T03:28:31.318Z,3.82
2019-04-11T03:31:37.293Z,3.80
2019-04-11T03:38:55.241Z,3.76
2019-04-11T03:41:20.336Z,3.74
2019-04-11T03:43:45.835Z,3.71
2019-04-11T03:46:24.941Z,3.71
2019-04-11T03:48:48.332Z,3.70
2019-04-11T03:51:05.485Z,3.68
2019-04-11T03:53:36.654Z,3.67
2019-04-11T03:56:05.431Z,3.62
2019-04-11T03:58:34.930Z,3.57
2019-04-11T04:01:06.489Z,3.52
2019-04-11T04:03:34.292Z,3.48
2019-04-11T04:06:04.523Z,3.44
2019-04-11T04:08:34.270Z,3.39
2019-04-11T04:11:06.138Z,3.33
2019-04-11T04:13:38.753Z,3.28
2019-04-11T04:16:32.231Z,3.25
2019-04-11T04:19:05.290Z,3.17
2019-04-11T04:21:55.364Z,3.11
2019-04-11T04:24:28.747Z,3.04
2019-04-11T04:27:01.011Z,2.97
2019-04-11T04:29:29.647Z,2.91
2019-04-11T04:31:59.508Z,2.85
2019-04-11T04:34:28.668Z,2.80
2019-04-11T04:36:57.837Z,2.74
2019-04-11T04:39:27.357Z,2.69
2019-04-11T04:42:05.887Z,2.64
2019-04-11T04:44:27.497Z,2.63
2019-04-11T04:47:10.244Z,2.60
2019-04-11T04:49:27.954Z,2.57
2019-04-11T04:51:56.960Z,2.55
2019-04-11T04:54:25.627Z,2.52
2019-04-11T04:56:54.700Z,2.51
2019-04-11T04:59:23.842Z,2.49
2019-04-11T05:01:53.279Z,2.50
2019-04-11T05:04:23.433Z,2.50
2019-04-11T05:06:53.054Z,2.51
2019-04-11T05:09:23.539Z,2.52
2019-04-11T05:11:53.034Z,2.51
2019-04-11T05:14:23.169Z,2.51
2019-04-11T05:16:52.540Z,2.52
2019-04-11T05:19:22.648Z,2.55
2019-04-11T05:21:52.019Z,2.57
2019-04-11T05:24:20.806Z,2.60
2019-04-11T05:26:50.355Z,2.62
2019-04-11T05:29:19.588Z,2.64
2019-04-11T05:31:49.217Z,2.65
2019-04-11T05:34:18.300Z,2.67
2019-04-11T05:36:47.150Z,2.69
2019-04-11T05:39:18.160Z,2.73
2019-04-11T05:41:47.140Z,2.76
2019-04-11T05:44:16.755Z,2.81
2019-04-11T05:46:52.876Z,2.85
2019-04-11T05:49:26.360Z,2.89
2019-04-11T05:51:58.595Z,2.95
2019-04-11T05:54:28.246Z,3.01
2019-04-11T05:56:59.575Z,3.06
2019-04-11T05:59:29.163Z,3.10
2019-04-11T06:02:06.308Z,3.18
2019-04-11T06:04:36.607Z,3.24
2019-04-11T06:07:08.448Z,3.31
2019-04-11T06:09:39.867Z,3.36
2019-04-11T06:12:21.832Z,3.42
2019-04-11T06:15:11.556Z,3.48
2019-04-11T06:17:42.713Z,3.53
2019-04-11T06:20:29.314Z,3.57
2019-04-11T06:23:00.381Z,3.62
2019-04-11T06:25:35.202Z,3.68
2019-04-11T06:28:06.221Z,3.76
2019-04-11T06:30:44.891Z,3.83
2019-04-11T06:33:24.730Z,3.90
2019-04-11T06:36:11.798Z,3.96
2019-04-11T06:38:59.758Z,4.01
2019-04-11T06:41:30.592Z,4.09
2019-04-11T06:44:09.757Z,4.17
2019-04-11T06:46:52.369Z,4.22
2019-04-11T06:49:18.330Z,4.28
2019-04-11T06:51:48.863Z,4.35
2019-04-11T06:54:25.253Z,4.42
2019-04-11T06:56:53.931Z,4.48
2019-04-11T06:59:24.039Z,4.57
2019-04-11T07:01:53.032Z,4.63
2019-04-11T07:04:23.341Z,4.71
2019-04-11T07:06:53.770Z,4.75
2019-04-11T07:09:30.833Z,4.81
2019-04-11T07:12:03.833Z,4.86
2019-04-11T07:14:33.957Z,4.96
2019-04-11T07:17:21.041Z,5.05
2019-04-11T07:20:00.394Z,5.15
2019-04-11T07:22:46.712Z,5.25
2019-04-11T07:25:22.946Z,5.36
2019-04-11T07:28:10.444Z,5.43
2019-04-11T07:30:58.055Z,5.50
2019-04-11T07:33:31.434Z,5.59
2019-04-11T07:36:18.383Z,5.75
2019-04-11T07:39:07.835Z,5.92
2019-04-11T07:41:39.251Z,6.19
2019-04-11T07:44:10.959Z,6.48
2019-04-11T07:46:57.986Z,6.63
2019-04-11T07:49:37.208Z,6.82
2019-04-11T07:52:22.875Z,7.05
2019-04-11T07:54:51.516Z,7.23
2019-04-11T07:57:28.314Z,7.31
2019-04-11T08:00:01.393Z,7.31
2019-04-11T08:02:47.994Z,7.27
2019-04-11T08:05:28.028Z,7.21
2019-04-11T08:08:00.963Z,7.17
2019-04-11T08:10:41.472Z,7.17
2019-04-11T08:13:12.371Z,7.19
2019-04-11T08:15:58.957Z,7.24
2019-04-11T08:18:29.125Z,7.27
2019-04-11T08:21:15.497Z,7.37
2019-04-11T08:23:45.747Z,7.46
2019-04-11T08:26:26.246Z,7.51
2019-04-11T08:29:05.260Z,7.45
2019-04-11T08:31:44.479Z,7.42
2019-04-11T08:34:13.313Z,7.45
2019-04-11T08:36:47.155Z,7.59
2019-04-11T08:39:18.009Z,7.72
2019-04-11T08:41:48.129Z,7.79
2019-04-11T08:44:17.436Z,7.81
2019-04-11T08:46:48.082Z,7.82
2019-04-11T08:49:29.907Z,7.90
2019-04-11T08:52:00.031Z,7.99
2019-04-11T08:54:33.370Z,7.99
2019-04-11T08:57:01.853Z,8.02
2019-04-11T08:59:49.823Z,8.09
2019-04-11T09:02:18.811Z,8.23
2019-04-11T09:05:02.729Z,8.38
2019-04-11T09:07:25.865Z,8.48
2019-04-11T09:10:12.244Z,8.59
2019-04-11T09:12:42.803Z,8.58
2019-04-11T09:15:28.978Z,8.55
2019-04-11T09:18:04.280Z,8.56
2019-04-11T09:20:30.362Z,8.67
2019-04-11T09:22:59.698Z,8.82
2019-04-11T09:25:43.325Z,8.96
2019-04-11T09:28:17.529Z,9.00
2019-04-11T09:30:57.039Z,8.98
2019-04-11T09:33:33.176Z,8.92
2019-04-11T09:36:19.798Z,8.91
2019-04-11T09:38:50.714Z,8.85
2019-04-11T09:41:28.161Z,8.92
2019-04-11T09:43:58.515Z,9.03
2019-04-11T09:46:32.403Z,9.19
2019-04-11T09:49:15.085Z,9.35
2019-04-11T09:51:51.994Z,9.41
2019-04-11T09:54:32.252Z,9.41
2019-04-11T09:57:09.977Z,9.39
2019-04-11T09:59:51.970Z,9.32
2019-04-11T10:02:37.110Z,9.28
2019-04-11T10:05:07.612Z,9.28
2019-04-11T10:07:41.965Z,9.31
2019-04-11T10:10:15.415Z,9.34
2019-04-11T10:13:02.664Z,9.31
2019-04-11T10:15:33.725Z,9.23
2019-04-11T10:18:26.123Z,9.15
2019-04-11T10:20:52.935Z,9.24
2019-04-11T10:23:26.958Z,9.28
2019-04-11T10:25:56.241Z,9.26
2019-04-11T10:28:29.541Z,9.35
2019-04-11T10:31:02.711Z,9.47
2019-04-11T10:33:33.114Z,9.57
2019-04-11T10:36:21.079Z,9.54
2019-04-11T10:38:51.407Z,9.48
2019-04-11T10:41:30.637Z,9.54
2019-04-11T10:43:59.482Z,9.71
2019-04-11T10:46:43.858Z,9.87
2019-04-11T10:49:30.614Z,9.91
2019-04-11T10:52:06.602Z,9.96
2019-04-11T10:54:36.717Z,10.06
2019-04-11T10:57:24.349Z,10.20
2019-04-11T10:59:52.908Z,10.26
2019-04-11T11:02:23.047Z,10.23
2019-04-11T11:04:53.697Z,10.24
2019-04-11T11:07:22.448Z,10.19
2019-04-11T11:09:52.635Z,10.09
2019-04-11T11:12:25.549Z,10.03
2019-04-11T11:15:12.075Z,10.04
2019-04-11T11:18:11.640Z,10.09
2019-04-11T11:20:31.223Z,10.17
2019-04-11T11:22:58.489Z,10.28
2019-04-11T11:25:35.093Z,10.30
2019-04-11T11:28:03.741Z,10.27
2019-04-11T11:30:39.943Z,10.26
2019-04-11T11:33:09.947Z,10.27
2019-04-11T11:35:56.821Z,10.24
2019-04-11T11:38:30.177Z,10.19
2019-04-11T11:41:03.909Z,10.13
2019-04-11T11:43:34.948Z,10.06
2019-04-11T11:46:25.730Z,9.97
2019-04-11T11:48:54.283Z,9.78
2019-04-11T11:51:31.254Z,9.54
2019-04-11T11:54:01.518Z,9.36
2019-04-11T11:56:31.750Z,9.14
2019-04-11T11:59:11.283Z,9.01
2019-04-11T12:01:46.621Z,8.93
2019-04-11T12:04:33.043Z,8.83
2019-04-11T12:07:07.054Z,8.78
2019-04-11T12:09:40.417Z,8.76
2019-04-11T12:12:19.949Z,8.77
2019-04-11T12:14:50.086Z,8.78
2019-04-11T12:17:26.913Z,8.71
2019-04-11T12:20:09.792Z,8.67
2019-04-11T12:22:35.082Z,8.65
2019-04-11T12:25:12.411Z,8.66
2019-04-11T12:27:49.983Z,8.77
2019-04-11T12:30:37.365Z,8.84
2019-04-11T12:33:19.858Z,8.88
2019-04-11T12:35:50.780Z,8.89
2019-04-11T12:38:39.107Z,8.94
2019-04-11T12:41:15.209Z,9.05
2019-04-11T12:43:57.525Z,9.21
2019-04-11T12:46:43.410Z,9.35
2019-04-11T12:49:28.514Z,9.57
2019-04-11T12:52:14.867Z,9.79
2019-04-11T12:54:44.986Z,9.98
2019-04-11T12:57:33.863Z,10.13
2019-04-11T13:00:19.004Z,10.23
2019-04-11T13:03:01.973Z,10.35
2019-04-11T13:05:32.823Z,10.33
2019-04-11T13:08:14.806Z,10.24
2019-04-11T13:10:47.600Z,10.12
2019-04-11T13:13:30.084Z,10.03
2019-04-11T13:16:12.893Z,9.98
2019-04-11T13:18:59.652Z,9.95
2019-04-11T13:21:35.495Z,9.91
2019-04-11T13:24:09.251Z,9.73
2019-04-11T13:26:42.190Z,9.48
2019-04-11T13:29:12.800Z,9.29
2019-04-11T13:31:45.324Z,9.16
2019-04-11T13:34:15.633Z,9.05
2019-04-11T13:37:02.071Z,8.96
2019-04-11T13:39:30.910Z,8.88
2019-04-11T13:42:04.068Z,8.88
2019-04-11T13:44:33.184Z,8.85
2019-04-11T13:47:14.910Z,8.83
2019-04-11T13:49:51.382Z,8.77
2019-04-11T13:52:21.578Z,8.73
2019-04-11T13:54:54.396Z,8.72
2019-04-11T13:57:25.054Z,8.67
2019-04-11T14:00:11.867Z,8.63
2019-04-11T14:02:51.183Z,8.62
2019-04-11T14:05:22.456Z,8.66
2019-04-11T14:07:55.481Z,8.72
2019-04-11T14:10:23.977Z,8.76
2019-04-11T14:12:54.097Z,8.73
2019-04-11T14:15:29.457Z,8.65
2019-04-11T14:18:04.926Z,8.57
2019-04-11T14:20:42.002Z,8.48
2019-04-11T14:23:14.800Z,8.41
2019-04-11T14:25:56.984Z,8.29
2019-04-11T14:28:27.114Z,8.20
2019-04-11T14:31:03.485Z,8.22
2019-04-11T14:33:33.591Z,8.25
2019-04-11T14:36:32.594Z,8.24
2019-04-11T14:38:53.071Z,8.17
2019-04-11T14:41:28.935Z,8.08
2019-04-11T14:43:59.069Z,8.04
2019-04-11T14:46:46.211Z,7.99
2019-04-11T14:49:14.882Z,7.91
2019-04-11T14:52:01.459Z,7.83
2019-04-11T14:54:37.136Z,7.79
2019-04-11T14:57:10.190Z,7.78
2019-04-11T14:59:40.428Z,7.78
2019-04-11T15:02:21.367Z,7.80
2019-04-11T15:05:07.398Z,7.84
2019-04-11T15:07:37.550Z,7.83
2019-04-11T15:10:21.270Z,7.81
2019-04-11T15:12:50.707Z,7.78
2019-04-11T15:15:29.628Z,7.75
2019-04-11T15:17:59.844Z,7.76
2019-04-11T15:20:33.871Z,7.77
2019-04-11T15:23:07.949Z,7.77
2019-04-11T15:25:56.386Z,7.76
2019-04-11T15:28:35.647Z,7.76
2019-04-11T15:31:06.050Z,7.74
2019-04-11T15:33:52.732Z,7.72
2019-04-11T15:36:27.613Z,7.68
2019-04-11T15:39:13.112Z,7.65
2019-04-11T15:41:43.419Z,7.61
2019-04-11T15:44:30.153Z,7.57
2019-04-11T15:47:03.250Z,7.59
2019-04-11T15:49:33.475Z,7.63
2019-04-11T15:52:06.288Z,7.69
2019-04-11T15:54:51.873Z,7.70
2019-04-11T15:57:26.799Z,7.71
2019-04-11T16:00:13.708Z,7.71
2019-04-11T16:02:59.616Z,7.73
2019-04-11T16:05:45.989Z,7.73
2019-04-11T16:08:26.112Z,7.69
2019-04-11T16:11:13.010Z,7.72
2019-04-11T16:13:43.187Z,7.74
2019-04-11T16:16:12.639Z,7.82
2019-04-11T16:18:58.096Z,7.89
2019-04-11T16:21:39.855Z,7.91
2019-04-11T16:24:27.590Z,7.90
2019-04-11T16:27:03.282Z,7.89
2019-04-11T16:29:33.430Z,7.86
2019-04-11T16:32:03.519Z,7.83
2019-04-11T16:34:47.901Z,7.79
2019-04-11T16:37:07.741Z,7.73
2019-04-11T16:39:55.173Z,7.68
2019-04-11T16:42:25.629Z,7.61
2019-04-11T16:45:11.546Z,7.53
2019-04-11T16:47:42.063Z,7.49
2019-04-11T16:50:11.089Z,7.42
2019-04-11T16:52:39.562Z,7.33
2019-04-11T16:55:10.027Z,7.29
2019-04-11T16:57:38.957Z,7.26
2019-04-11T17:00:09.629Z,7.23
2019-04-11T17:02:38.294Z,7.19
2019-04-11T17:05:08.492Z,7.12
2019-04-11T17:07:44.536Z,7.06
2019-04-11T17:10:14.747Z,7.01
2019-04-11T17:12:43.377Z,6.95
2019-04-11T17:15:12.203Z,6.90
2019-04-11T17:17:40.739Z,6.88
2019-04-11T17:20:09.361Z,6.88
2019-04-11T17:22:37.866Z,6.88
2019-04-11T17:25:07.065Z,6.84
2019-04-11T17:27:35.527Z,6.80
2019-04-11T17:30:06.205Z,6.74
2019-04-11T17:32:34.661Z,6.71
2019-04-11T17:35:03.123Z,6.67
2019-04-11T17:37:33.234Z,6.68
2019-04-11T17:40:06.591Z,6.67
2019-04-11T17:42:33.720Z,6.67
2019-04-11T17:45:02.489Z,6.63
2019-04-11T17:47:30.948Z,6.60
2019-04-11T17:49:59.757Z,6.56
2019-04-11T17:52:28.945Z,6.50
2019-04-11T17:55:00.067Z,6.47
2019-04-11T17:57:27.739Z,6.45
2019-04-11T17:59:59.116Z,6.43
2019-04-11T18:02:27.308Z,6.41
2019-04-11T18:04:56.016Z,6.40
2019-04-11T18:07:24.504Z,6.38
2019-04-11T18:09:55.781Z,6.36
2019-04-11T18:12:23.871Z,6.34
2019-04-11T18:14:54.496Z,6.30
2019-04-11T18:17:22.978Z,6.28
2019-04-11T18:19:51.425Z,6.25
2019-04-11T18:22:21.143Z,6.22
2019-04-11T18:24:50.631Z,6.18
2019-04-11T18:27:21.531Z,6.12
2019-04-11T18:29:52.536Z,6.07
2019-04-11T18:32:19.885Z,6.02
2019-04-11T18:34:48.362Z,5.98
2019-04-11T18:37:17.801Z,5.92
2019-04-11T18:39:46.289Z,5.90
2019-04-11T18:42:14.848Z,5.85
2019-04-11T18:44:43.828Z,5.82
2019-04-11T18:47:12.254Z,5.77
2019-04-11T18:49:40.756Z,5.76
2019-04-11T18:52:19.152Z,5.75
2019-04-11T18:54:39.845Z,5.73
2019-04-11T18:57:08.305Z,5.70
2019-04-11T18:59:36.987Z,5.67
2019-04-11T19:02:09.627Z,5.66
2019-04-11T19:04:36.360Z,5.64
2019-04-11T19:07:05.888Z,5.63
2019-04-11T19:09:34.738Z,5.63
2019-04-11T19:12:04.598Z,5.65
2019-04-11T19:14:33.096Z,5.64
2019-04-11T19:17:01.563Z,5.63
2019-04-11T19:19:30.184Z,5.60
2019-04-11T19:21:58.755Z,5.59
2019-04-11T19:24:35.316Z,5.58
2019-04-11T19:26:57.489Z,5.56
2019-04-11T19:29:26.065Z,5.55
2019-04-11T19:31:54.628Z,5.53
2019-04-11T19:34:23.187Z,5.50
2019-04-11T19:36:51.790Z,5.49
2019-04-11T19:39:20.265Z,5.48
2019-04-11T19:41:49.136Z,5.48
2019-04-11T19:44:19.356Z,5.48
2019-04-11T19:46:51.047Z,5.49
2019-04-11T19:49:18.697Z,5.48
2019-04-11T19:51:47.598Z,5.48
2019-04-11T19:54:16.447Z,5.46
2019-04-11T19:56:46.607Z,5.46
2019-04-11T19:59:15.328Z,5.44
2019-04-11T20:01:43.773Z,5.43
2019-04-11T20:04:12.676Z,5.41
2019-04-11T20:06:41.548Z,5.40
2019-04-11T20:09:10.105Z,5.39
2019-04-11T20:11:38.604Z,5.38
2019-04-11T20:14:07.959Z,5.36
2019-04-11T20:16:42.038Z,5.34
2019-04-11T20:19:06.922Z,5.32
2019-04-11T20:21:37.866Z,5.30
2019-04-11T20:24:05.709Z,5.31
2019-04-11T20:26:34.254Z,5.30
2019-04-11T20:29:02.867Z,5.28
2019-04-11T20:31:31.646Z,5.28
2019-04-11T20:34:01.613Z,5.26
2019-04-11T20:36:33.575Z,5.25
2019-04-11T20:39:00.551Z,5.23
2019-04-11T20:41:29.118Z,5.22
2019-04-11T20:43:57.991Z,5.23
2019-04-11T20:46:28.805Z,5.22
2019-04-11T20:48:56.773Z,5.22
2019-04-11T20:51:25.500Z,5.22
2019-04-11T20:53:53.967Z,5.22
2019-04-11T20:56:24.356Z,5.23
2019-04-11T20:58:52.925Z,5.25
2019-04-11T21:01:21.455Z,5.25
2019-04-11T21:03:49.942Z,5.24
2019-04-11T21:06:18.860Z,5.26
2019-04-11T21:08:47.292Z,5.28
2019-04-11T21:11:15.830Z,5.29
2019-04-11T21:13:44.348Z,5.29
2019-04-11T21:16:13.182Z,5.28
2019-04-11T21:18:41.754Z,5.26
2019-04-11T21:21:10.380Z,5.26
2019-04-11T21:23:38.991Z,5.23
2019-04-11T21:26:07.452Z,5.20
2019-04-11T21:28:36.034Z,5.16
2019-04-11T21:31:04.486Z,5.13
2019-04-11T21:33:34.952Z,5.11
2019-04-11T21:36:04.013Z,5.07
2019-04-11T21:38:32.505Z,5.03
2019-04-11T21:41:00.971Z,5.02
2019-04-11T21:43:29.498Z,5.02
2019-04-11T21:45:57.957Z,5.00
2019-04-11T21:48:26.458Z,5.00
2019-04-11T21:50:55.133Z,5.00
2019-04-11T21:53:23.602Z,5.01
2019-04-11T21:55:52.061Z,5.00
2019-04-11T21:58:21.256Z,5.00
2019-04-11T22:00:54.399Z,5.00
2019-04-11T22:03:24.250Z,5.01
2019-04-11T22:05:53.875Z,5.01
2019-04-11T22:08:22.328Z,4.99
2019-04-11T22:10:56.926Z,4.97
2019-04-11T22:13:25.740Z,4.98
2019-04-11T22:15:55.831Z,4.96
2019-04-11T22:18:24.311Z,4.93
2019-04-11T22:20:58.185Z,4.91
2019-04-11T22:23:29.467Z,4.89
2019-04-11T22:25:58.058Z,4.87
2019-04-11T22:28:29.723Z,4.84
2019-04-11T22:30:59.694Z,4.81
2019-04-11T22:33:34.577Z,4.79
2019-04-11T22:36:04.714Z,4.77
2019-04-11T22:38:36.331Z,4.74
2019-04-11T22:41:06.468Z,4.70
2019-04-11T22:43:38.136Z,4.66
2019-04-11T22:46:20.096Z,4.64
2019-04-11T22:48:42.037Z,4.62
2019-04-11T22:51:13.640Z,4.59
2019-04-11T22:53:44.000Z,4.56
2019-04-11T22:56:12.989Z,4.52
2019-04-11T22:58:43.522Z,4.47
2019-04-11T23:01:14.019Z,4.40
2019-04-11T23:03:49.202Z,4.34
2019-04-11T23:06:17.920Z,4.29
2019-04-11T23:08:48.906Z,4.26
2019-04-11T23:11:17.138Z,4.21
2019-04-11T23:13:46.339Z,4.17
2019-04-11T23:16:15.046Z,4.13
2019-04-11T23:18:44.319Z,4.09
2019-04-11T23:21:14.992Z,4.06
2019-04-11T23:23:44.024Z,4.01
2019-04-11T23:26:12.537Z,3.96
2019-04-11T23:28:40.998Z,3.89
2019-04-11T23:31:09.567Z,3.84
2019-04-11T23:33:38.079Z,3.77
2019-04-11T23:36:06.556Z,3.71
2019-04-11T23:38:35.036Z,3.64
2019-04-11T23:41:03.590Z,3.60
2019-04-11T23:43:32.048Z,3.54
2019-04-11T23:46:01.198Z,3.48
2019-04-11T23:48:29.675Z,3.45
2019-04-11T23:50:58.132Z,3.38
2019-04-11T23:53:29.129Z,3.33
2019-04-11T23:55:59.966Z,3.28
2019-04-11T23:58:27.227Z,3.22
